Atlantic City International Airport
KACY : rendu visible

Aérodrome :











RETROUVEZ-NOUS SUR...

 
LOGIN :

S'inscrire | Disclaimer

   EN    FR    IT 

 









Légende :    VFR   VFR Marginal   IFR   IFR Intensif   IFR Très Intensif
Visi : 
Plafond : 
>= 8 km
>= 3000ft
5 à 8 km
1000 à 3000 ft
1500m à 5 km
500 à 1000 ft
800 à 1500m
200 à 500 ft
< 800m
< 200 ft
Symboles :   Orages  Brouillard  Fortes neiges  Fortes précipitations  Vent > 20 kt






- Altitude de l'aérodrome : 75 ft
- Code IATA : ACY


KACY - Atlantic City International

DERNIER METAR :
  • 201554Z 33016G24KT 10SM FEW033 08/00 A2996 RMK AO2 PK WND 30027/1524 SLP146 T00830000

METARs EXPIRÉS :
  • 201454Z 32013G20KT 10SM CLR 08/01 A2997 RMK AO2 SLP148 T00830011 51011

TAF KACY
Valide du 20 à 15h jusqu'au 21 à 12h UTC


201511Z 2015/2112 32010G18KT P6SM SCT050
FM201700 32012G22KT P6SM BKN050
FM210000 33010KT P6SM SCT050



MET'MAP, la Météo Aéronautique d'un coup d'oeil ! - Copyright ORBIFLY Décembre 2007 - Disclaimer

ORBIFLY MET'MAP TEAM :

Programmation & Développement : Alexandra Zaïnal
Conception & Développement : Baudouin d'Aumeries
Co-Programmation & Développement : Marc-Olivier Méhu
Soutien technique & logistique : Manuel Goepfert

Contact : metmap@orbifly.com




SOURCES & CREDITS :

   NOAA       Earth
Advisory